sensor_id;sensor_type;location;lat;lon;timestamp;temperature;humidity
1337;DHT22;662;48.814;9.318;2024-02-26T00:01:26;10.30;52.50
1337;DHT22;662;48.814;9.318;2024-02-26T00:03:51;10.30;52.40
1337;DHT22;662;48.814;9.318;2024-02-26T00:06:18;10.30;52.40
1337;DHT22;662;48.814;9.318;2024-02-26T00:08:44;10.30;52.40
1337;DHT22;662;48.814;9.318;2024-02-26T00:11:10;10.30;52.30
1337;DHT22;662;48.814;9.318;2024-02-26T00:13:36;10.30;52.30
1337;DHT22;662;48.814;9.318;2024-02-26T00:16:04;10.30;52.30
1337;DHT22;662;48.814;9.318;2024-02-26T00:18:29;10.30;52.30
1337;DHT22;662;48.814;9.318;2024-02-26T00:20:55;10.40;52.30
1337;DHT22;662;48.814;9.318;2024-02-26T00:23:21;10.30;52.20
1337;DHT22;662;48.814;9.318;2024-02-26T00:25:47;10.40;52.20
1337;DHT22;662;48.814;9.318;2024-02-26T00:28:13;10.40;52.20
1337;DHT22;662;48.814;9.318;2024-02-26T00:30:39;10.30;52.00
1337;DHT22;662;48.814;9.318;2024-02-26T00:33:05;10.30;52.00
1337;DHT22;662;48.814;9.318;2024-02-26T00:35:30;10.30;51.90
1337;DHT22;662;48.814;9.318;2024-02-26T00:37:56;10.30;51.90
1337;DHT22;662;48.814;9.318;2024-02-26T00:40:22;10.30;51.90
1337;DHT22;662;48.814;9.318;2024-02-26T00:42:47;10.30;51.80
1337;DHT22;662;48.814;9.318;2024-02-26T00:45:13;10.30;51.90
1337;DHT22;662;48.814;9.318;2024-02-26T00:47:40;10.30;51.90
1337;DHT22;662;48.814;9.318;2024-02-26T00:50:10;10.20;51.90
1337;DHT22;662;48.814;9.318;2024-02-26T00:52:35;10.20;52.30
1337;DHT22;662;48.814;9.318;2024-02-26T00:55:02;10.20;51.80
1337;DHT22;662;48.814;9.318;2024-02-26T00:57:28;10.20;51.80
1337;DHT22;662;48.814;9.318;2024-02-26T00:59:53;10.20;51.90
1337;DHT22;662;48.814;9.318;2024-02-26T01:02:22;10.20;51.90
1337;DHT22;662;48.814;9.318;2024-02-26T01:04:47;10.10;51.90
1337;DHT22;662;48.814;9.318;2024-02-26T01:07:13;10.10;51.80
1337;DHT22;662;48.814;9.318;2024-02-26T01:09:39;10.10;51.80
1337;DHT22;662;48.814;9.318;2024-02-26T01:12:04;10.10;51.90
1337;DHT22;662;48.814;9.318;2024-02-26T01:14:31;10.10;51.90
1337;DHT22;662;48.814;9.318;2024-02-26T01:16:56;10.10;51.90
1337;DHT22;662;48.814;9.318;2024-02-26T01:19:22;10.10;51.80
1337;DHT22;662;48.814;9.318;2024-02-26T01:21:47;10.10;51.80
1337;DHT22;662;48.814;9.318;2024-02-26T01:24:13;10.20;51.90
1337;DHT22;662;48.814;9.318;2024-02-26T01:26:39;10.20;51.90
1337;DHT22;662;48.814;9.318;2024-02-26T01:29:04;10.10;51.80
1337;DHT22;662;48.814;9.318;2024-02-26T01:31:30;10.20;51.90
1337;DHT22;662;48.814;9.318;2024-02-26T01:33:56;10.20;51.80
1337;DHT22;662;48.814;9.318;2024-02-26T01:36:21;10.20;51.80
1337;DHT22;662;48.814;9.318;2024-02-26T01:38:47;10.20;51.80
1337;DHT22;662;48.814;9.318;2024-02-26T01:41:16;10.20;51.80
1337;DHT22;662;48.814;9.318;2024-02-26T01:43:42;10.20;51.90
1337;DHT22;662;48.814;9.318;2024-02-26T01:46:13;10.20;51.80
1337;DHT22;662;48.814;9.318;2024-02-26T01:48:41;10.10;51.70
1337;DHT22;662;48.814;9.318;2024-02-26T01:51:07;10.10;51.70
1337;DHT22;662;48.814;9.318;2024-02-26T01:53:33;10.20;51.70
1337;DHT22;662;48.814;9.318;2024-02-26T01:56:00;10.20;51.70
1337;DHT22;662;48.814;9.318;2024-02-26T01:58:26;10.10;51.70
1337;DHT22;662;48.814;9.318;2024-02-26T02:00:52;10.10;51.60
1337;DHT22;662;48.814;9.318;2024-02-26T02:03:18;10.10;51.40
1337;DHT22;662;48.814;9.318;2024-02-26T02:05:44;10.20;51.90
1337;DHT22;662;48.814;9.318;2024-02-26T02:08:13;10.20;51.50
1337;DHT22;662;48.814;9.318;2024-02-26T02:10:40;10.10;51.60
1337;DHT22;662;48.814;9.318;2024-02-26T02:13:07;10.10;51.80
1337;DHT22;662;48.814;9.318;2024-02-26T02:15:32;10.10;52.10
1337;DHT22;662;48.814;9.318;2024-02-26T02:17:58;10.10;52.20
1337;DHT22;662;48.814;9.318;2024-02-26T02:20:26;10.10;52.30
1337;DHT22;662;48.814;9.318;2024-02-26T02:22:56;10.10;52.40
1337;DHT22;662;48.814;9.318;2024-02-26T02:25:22;10.10;52.40
1337;DHT22;662;48.814;9.318;2024-02-26T02:27:48;10.10;52.50
1337;DHT22;662;48.814;9.318;2024-02-26T02:30:13;10.10;52.50
1337;DHT22;662;48.814;9.318;2024-02-26T02:32:40;10.10;52.50
1337;DHT22;662;48.814;9.318;2024-02-26T02:35:09;10.20;52.60
1337;DHT22;662;48.814;9.318;2024-02-26T02:37:35;10.10;52.50
1337;DHT22;662;48.814;9.318;2024-02-26T02:40:00;10.10;52.50
1337;DHT22;662;48.814;9.318;2024-02-26T02:42:26;10.10;52.50
1337;DHT22;662;48.814;9.318;2024-02-26T02:44:52;10.10;52.50
1337;DHT22;662;48.814;9.318;2024-02-26T02:47:17;10.10;52.50
1337;DHT22;662;48.814;9.318;2024-02-26T02:49:43;10.10;52.60
1337;DHT22;662;48.814;9.318;2024-02-26T02:52:09;10.10;52.70
1337;DHT22;662;48.814;9.318;2024-02-26T02:54:34;10.10;52.70
1337;DHT22;662;48.814;9.318;2024-02-26T02:57:01;10.10;52.80
1337;DHT22;662;48.814;9.318;2024-02-26T02:59:27;10.00;52.60
1337;DHT22;662;48.814;9.318;2024-02-26T03:01:52;10.00;52.60
1337;DHT22;662;48.814;9.318;2024-02-26T03:04:18;10.00;52.70
1337;DHT22;662;48.814;9.318;2024-02-26T03:06:44;10.00;52.80
1337;DHT22;662;48.814;9.318;2024-02-26T03:09:09;9.90;53.80
1337;DHT22;662;48.814;9.318;2024-02-26T03:11:35;9.90;54.00
1337;DHT22;662;48.814;9.318;2024-02-26T03:14:01;9.90;54.20
1337;DHT22;662;48.814;9.318;2024-02-26T03:16:26;9.90;54.30
1337;DHT22;662;48.814;9.318;2024-02-26T03:18:52;9.90;54.50
1337;DHT22;662;48.814;9.318;2024-02-26T03:21:18;9.90;54.70
1337;DHT22;662;48.814;9.318;2024-02-26T03:23:43;9.90;54.80
1337;DHT22;662;48.814;9.318;2024-02-26T03:26:09;9.80;54.80
1337;DHT22;662;48.814;9.318;2024-02-26T03:28:39;9.90;55.00
1337;DHT22;662;48.814;9.318;2024-02-26T03:31:04;9.90;55.10
1337;DHT22;662;48.814;9.318;2024-02-26T03:33:30;9.90;55.20
1337;DHT22;662;48.814;9.318;2024-02-26T03:35:55;9.90;55.20
1337;DHT22;662;48.814;9.318;2024-02-26T03:38:21;9.80;55.10
1337;DHT22;662;48.814;9.318;2024-02-26T03:40:47;9.90;55.20
1337;DHT22;662;48.814;9.318;2024-02-26T03:43:13;9.90;55.20
1337;DHT22;662;48.814;9.318;2024-02-26T03:45:39;9.90;55.30
1337;DHT22;662;48.814;9.318;2024-02-26T03:48:05;9.80;55.30
1337;DHT22;662;48.814;9.318;2024-02-26T03:50:31;9.80;55.30
1337;DHT22;662;48.814;9.318;2024-02-26T03:52:56;9.80;55.30
1337;DHT22;662;48.814;9.318;2024-02-26T03:55:23;9.70;55.30
1337;DHT22;662;48.814;9.318;2024-02-26T03:57:54;9.70;55.30
1337;DHT22;662;48.814;9.318;2024-02-26T04:00:19;9.70;55.40
1337;DHT22;662;48.814;9.318;2024-02-26T04:02:46;9.70;55.50
1337;DHT22;662;48.814;9.318;2024-02-26T04:05:13;9.70;55.60
1337;DHT22;662;48.814;9.318;2024-02-26T04:07:40;9.70;55.70
1337;DHT22;662;48.814;9.318;2024-02-26T04:10:09;9.70;55.80
1337;DHT22;662;48.814;9.318;2024-02-26T04:12:35;9.70;55.80
1337;DHT22;662;48.814;9.318;2024-02-26T04:15:01;9.60;55.70
1337;DHT22;662;48.814;9.318;2024-02-26T04:17:26;9.60;55.70
1337;DHT22;662;48.814;9.318;2024-02-26T04:19:52;9.60;55.80
1337;DHT22;662;48.814;9.318;2024-02-26T04:22:18;9.60;55.70
1337;DHT22;662;48.814;9.318;2024-02-26T04:24:43;9.60;55.70
1337;DHT22;662;48.814;9.318;2024-02-26T04:27:09;9.60;55.90
1337;DHT22;662;48.814;9.318;2024-02-26T04:29:34;9.60;56.00
1337;DHT22;662;48.814;9.318;2024-02-26T04:32:00;9.60;56.30
1337;DHT22;662;48.814;9.318;2024-02-26T04:34:25;9.60;56.60
1337;DHT22;662;48.814;9.318;2024-02-26T04:36:51;9.60;56.70
1337;DHT22;662;48.814;9.318;2024-02-26T04:39:17;9.60;56.50
1337;DHT22;662;48.814;9.318;2024-02-26T04:41:43;9.60;56.20
1337;DHT22;662;48.814;9.318;2024-02-26T04:44:09;9.50;55.90
1337;DHT22;662;48.814;9.318;2024-02-26T04:46:35;9.50;55.60
1337;DHT22;662;48.814;9.318;2024-02-26T04:49:00;9.50;55.20
1337;DHT22;662;48.814;9.318;2024-02-26T04:51:26;9.50;55.20
1337;DHT22;662;48.814;9.318;2024-02-26T04:53:52;9.50;55.20
1337;DHT22;662;48.814;9.318;2024-02-26T04:56:22;9.50;55.20
1337;DHT22;662;48.814;9.318;2024-02-26T04:58:48;9.50;55.20
1337;DHT22;662;48.814;9.318;2024-02-26T05:01:14;9.50;55.30
1337;DHT22;662;48.814;9.318;2024-02-26T05:03:41;9.50;55.20
1337;DHT22;662;48.814;9.318;2024-02-26T05:06:07;9.40;55.10
1337;DHT22;662;48.814;9.318;2024-02-26T05:08:32;9.50;55.20
1337;DHT22;662;48.814;9.318;2024-02-26T05:11:01;9.40;55.20
1337;DHT22;662;48.814;9.318;2024-02-26T05:13:28;9.40;55.20
1337;DHT22;662;48.814;9.318;2024-02-26T05:15:54;9.40;55.30
1337;DHT22;662;48.814;9.318;2024-02-26T05:18:20;9.40;55.20
1337;DHT22;662;48.814;9.318;2024-02-26T05:20:47;9.50;55.20
1337;DHT22;662;48.814;9.318;2024-02-26T05:23:12;9.50;55.10
1337;DHT22;662;48.814;9.318;2024-02-26T05:25:38;9.50;55.10
1337;DHT22;662;48.814;9.318;2024-02-26T05:28:04;9.60;55.10
1337;DHT22;662;48.814;9.318;2024-02-26T05:30:30;9.60;55.60
1337;DHT22;662;48.814;9.318;2024-02-26T05:32:55;9.60;55.10
1337;DHT22;662;48.814;9.318;2024-02-26T05:35:21;9.70;55.20
1337;DHT22;662;48.814;9.318;2024-02-26T05:37:46;9.70;55.30
1337;DHT22;662;48.814;9.318;2024-02-26T05:40:12;9.70;55.40
1337;DHT22;662;48.814;9.318;2024-02-26T05:42:38;9.70;55.40
1337;DHT22;662;48.814;9.318;2024-02-26T05:45:04;9.70;56.00
1337;DHT22;662;48.814;9.318;2024-02-26T05:47:34;9.70;55.60
1337;DHT22;662;48.814;9.318;2024-02-26T05:50:00;9.70;55.60
1337;DHT22;662;48.814;9.318;2024-02-26T05:52:27;9.80;55.90
1337;DHT22;662;48.814;9.318;2024-02-26T05:54:53;9.80;56.00
1337;DHT22;662;48.814;9.318;2024-02-26T05:57:19;9.80;56.10
1337;DHT22;662;48.814;9.318;2024-02-26T05:59:45;9.80;56.10
1337;DHT22;662;48.814;9.318;2024-02-26T06:02:10;9.80;56.20
1337;DHT22;662;48.814;9.318;2024-02-26T06:04:36;9.80;56.20
1337;DHT22;662;48.814;9.318;2024-02-26T06:07:08;9.80;56.30
1337;DHT22;662;48.814;9.318;2024-02-26T06:09:34;9.90;56.60
1337;DHT22;662;48.814;9.318;2024-02-26T06:11:59;9.90;56.70
1337;DHT22;662;48.814;9.318;2024-02-26T06:14:25;9.90;56.90
1337;DHT22;662;48.814;9.318;2024-02-26T06:16:51;9.90;57.10
1337;DHT22;662;48.814;9.318;2024-02-26T06:19:16;9.80;57.40
1337;DHT22;662;48.814;9.318;2024-02-26T06:21:42;9.80;57.60
1337;DHT22;662;48.814;9.318;2024-02-26T06:24:07;9.80;57.90
1337;DHT22;662;48.814;9.318;2024-02-26T06:26:33;9.80;58.10
1337;DHT22;662;48.814;9.318;2024-02-26T06:28:59;9.80;58.10
1337;DHT22;662;48.814;9.318;2024-02-26T06:31:24;9.80;58.20
1337;DHT22;662;48.814;9.318;2024-02-26T06:33:53;9.80;58.20
1337;DHT22;662;48.814;9.318;2024-02-26T06:36:19;9.80;58.50
1337;DHT22;662;48.814;9.318;2024-02-26T06:38:44;9.80;58.50
1337;DHT22;662;48.814;9.318;2024-02-26T06:41:10;9.80;58.60
1337;DHT22;662;48.814;9.318;2024-02-26T06:43:37;9.80;58.60
1337;DHT22;662;48.814;9.318;2024-02-26T06:46:02;9.80;58.60
1337;DHT22;662;48.814;9.318;2024-02-26T06:48:30;9.80;58.70
1337;DHT22;662;48.814;9.318;2024-02-26T06:50:56;9.80;58.80
1337;DHT22;662;48.814;9.318;2024-02-26T06:53:22;9.80;58.80
1337;DHT22;662;48.814;9.318;2024-02-26T06:55:48;9.80;58.80
1337;DHT22;662;48.814;9.318;2024-02-26T06:58:15;9.70;58.90
1337;DHT22;662;48.814;9.318;2024-02-26T07:00:41;9.80;59.00
1337;DHT22;662;48.814;9.318;2024-02-26T07:03:07;9.80;59.00
1337;DHT22;662;48.814;9.318;2024-02-26T07:05:32;9.70;59.10
1337;DHT22;662;48.814;9.318;2024-02-26T07:07:58;9.70;59.10
1337;DHT22;662;48.814;9.318;2024-02-26T07:10:24;9.70;59.10
1337;DHT22;662;48.814;9.318;2024-02-26T07:12:49;9.80;59.10
1337;DHT22;662;48.814;9.318;2024-02-26T07:15:15;9.80;59.00
1337;DHT22;662;48.814;9.318;2024-02-26T07:17:40;9.80;58.90
1337;DHT22;662;48.814;9.318;2024-02-26T07:20:13;9.80;58.90
1337;DHT22;662;48.814;9.318;2024-02-26T07:22:39;9.80;58.90
1337;DHT22;662;48.814;9.318;2024-02-26T07:25:05;9.80;58.80
1337;DHT22;662;48.814;9.318;2024-02-26T07:27:33;9.80;58.80
1337;DHT22;662;48.814;9.318;2024-02-26T07:29:58;9.90;58.80
1337;DHT22;662;48.814;9.318;2024-02-26T07:32:24;9.90;58.60
1337;DHT22;662;48.814;9.318;2024-02-26T07:34:52;9.90;58.50
1337;DHT22;662;48.814;9.318;2024-02-26T07:37:18;9.90;58.50
1337;DHT22;662;48.814;9.318;2024-02-26T07:39:43;9.90;58.40
1337;DHT22;662;48.814;9.318;2024-02-26T07:42:09;9.90;58.30
1337;DHT22;662;48.814;9.318;2024-02-26T07:44:35;10.00;57.50
1337;DHT22;662;48.814;9.318;2024-02-26T07:47:00;10.00;57.40
1337;DHT22;662;48.814;9.318;2024-02-26T07:49:26;10.00;57.40
1337;DHT22;662;48.814;9.318;2024-02-26T07:51:52;10.10;57.60
1337;DHT22;662;48.814;9.318;2024-02-26T07:54:17;10.10;57.50
1337;DHT22;662;48.814;9.318;2024-02-26T07:56:44;10.10;57.50
1337;DHT22;662;48.814;9.318;2024-02-26T07:59:10;10.20;57.60
1337;DHT22;662;48.814;9.318;2024-02-26T08:01:36;10.20;57.50
1337;DHT22;662;48.814;9.318;2024-02-26T08:04:04;10.20;57.50
1337;DHT22;662;48.814;9.318;2024-02-26T08:06:30;10.30;57.60
1337;DHT22;662;48.814;9.318;2024-02-26T08:08:56;10.30;57.60
1337;DHT22;662;48.814;9.318;2024-02-26T08:11:21;10.40;57.70
1337;DHT22;662;48.814;9.318;2024-02-26T08:13:47;10.40;57.80
1337;DHT22;662;48.814;9.318;2024-02-26T08:16:13;10.50;57.80
1337;DHT22;662;48.814;9.318;2024-02-26T08:18:38;10.50;57.70
1337;DHT22;662;48.814;9.318;2024-02-26T08:21:04;10.50;57.60
1337;DHT22;662;48.814;9.318;2024-02-26T08:23:30;10.60;57.70
1337;DHT22;662;48.814;9.318;2024-02-26T08:25:56;10.60;57.70
1337;DHT22;662;48.814;9.318;2024-02-26T08:28:22;10.60;57.70
1337;DHT22;662;48.814;9.318;2024-02-26T08:30:48;10.60;57.80
1337;DHT22;662;48.814;9.318;2024-02-26T08:33:14;10.50;58.00
1337;DHT22;662;48.814;9.318;2024-02-26T08:35:39;10.50;58.20
1337;DHT22;662;48.814;9.318;2024-02-26T08:38:05;10.50;58.50
1337;DHT22;662;48.814;9.318;2024-02-26T08:40:31;10.50;58.80
1337;DHT22;662;48.814;9.318;2024-02-26T08:42:56;10.50;59.10
1337;DHT22;662;48.814;9.318;2024-02-26T08:45:23;10.50;59.30
1337;DHT22;662;48.814;9.318;2024-02-26T08:47:48;10.60;59.50
1337;DHT22;662;48.814;9.318;2024-02-26T08:50:15;10.60;59.70
1337;DHT22;662;48.814;9.318;2024-02-26T08:52:40;10.60;59.80
1337;DHT22;662;48.814;9.318;2024-02-26T08:55:06;10.60;59.70
1337;DHT22;662;48.814;9.318;2024-02-26T08:57:34;10.60;59.60
1337;DHT22;662;48.814;9.318;2024-02-26T09:00:00;10.60;59.70
1337;DHT22;662;48.814;9.318;2024-02-26T09:02:26;10.60;59.60
1337;DHT22;662;48.814;9.318;2024-02-26T09:04:52;10.70;60.20
1337;DHT22;662;48.814;9.318;2024-02-26T09:07:20;10.70;59.60
1337;DHT22;662;48.814;9.318;2024-02-26T09:09:46;10.80;59.80
1337;DHT22;662;48.814;9.318;2024-02-26T09:12:12;10.80;59.70
1337;DHT22;662;48.814;9.318;2024-02-26T09:14:37;10.80;59.30
1337;DHT22;662;48.814;9.318;2024-02-26T09:17:03;10.90;59.20
1337;DHT22;662;48.814;9.318;2024-02-26T09:19:29;10.90;58.90
1337;DHT22;662;48.814;9.318;2024-02-26T09:21:54;11.00;58.90
1337;DHT22;662;48.814;9.318;2024-02-26T09:24:24;11.00;58.90
1337;DHT22;662;48.814;9.318;2024-02-26T09:26:49;11.10;58.90
1337;DHT22;662;48.814;9.318;2024-02-26T09:29:15;11.10;58.80
1337;DHT22;662;48.814;9.318;2024-02-26T09:31:41;11.10;58.60
1337;DHT22;662;48.814;9.318;2024-02-26T09:34:07;11.10;58.40
1337;DHT22;662;48.814;9.318;2024-02-26T09:36:33;11.10;58.20
1337;DHT22;662;48.814;9.318;2024-02-26T09:38:59;11.10;58.00
1337;DHT22;662;48.814;9.318;2024-02-26T09:41:30;11.20;58.00
1337;DHT22;662;48.814;9.318;2024-02-26T09:43:58;11.20;57.70
1337;DHT22;662;48.814;9.318;2024-02-26T09:46:27;11.30;57.40
1337;DHT22;662;48.814;9.318;2024-02-26T09:48:54;11.30;57.20
1337;DHT22;662;48.814;9.318;2024-02-26T09:51:23;11.30;56.80
1337;DHT22;662;48.814;9.318;2024-02-26T09:53:51;11.40;56.60
1337;DHT22;662;48.814;9.318;2024-02-26T09:56:17;11.50;56.50
1337;DHT22;662;48.814;9.318;2024-02-26T09:58:45;11.60;56.30
1337;DHT22;662;48.814;9.318;2024-02-26T10:01:18;11.60;56.00
1337;DHT22;662;48.814;9.318;2024-02-26T10:03:44;11.70;55.70
1337;DHT22;662;48.814;9.318;2024-02-26T10:06:14;11.60;55.30
1337;DHT22;662;48.814;9.318;2024-02-26T10:08:40;11.60;55.30
1337;DHT22;662;48.814;9.318;2024-02-26T10:11:07;11.60;55.40
1337;DHT22;662;48.814;9.318;2024-02-26T10:13:35;11.60;55.50
1337;DHT22;662;48.814;9.318;2024-02-26T10:16:01;11.70;55.50
1337;DHT22;662;48.814;9.318;2024-02-26T10:18:45;11.70;54.80
1337;DHT22;662;48.814;9.318;2024-02-26T10:21:10;11.90;54.90
1337;DHT22;662;48.814;9.318;2024-02-26T10:23:36;12.10;54.70
1337;DHT22;662;48.814;9.318;2024-02-26T10:26:02;12.30;54.70
1337;DHT22;662;48.814;9.318;2024-02-26T10:28:29;12.40;53.30
1337;DHT22;662;48.814;9.318;2024-02-26T10:30:55;12.50;53.40
1337;DHT22;662;48.814;9.318;2024-02-26T10:33:22;12.60;53.20
1337;DHT22;662;48.814;9.318;2024-02-26T10:35:48;12.60;53.00
1337;DHT22;662;48.814;9.318;2024-02-26T10:38:13;12.70;52.90
1337;DHT22;662;48.814;9.318;2024-02-26T10:40:42;12.70;52.90
1337;DHT22;662;48.814;9.318;2024-02-26T10:43:08;12.80;52.70
1337;DHT22;662;48.814;9.318;2024-02-26T10:45:33;12.90;52.60
1337;DHT22;662;48.814;9.318;2024-02-26T10:48:00;13.10;52.50
1337;DHT22;662;48.814;9.318;2024-02-26T10:50:26;13.30;52.40
1337;DHT22;662;48.814;9.318;2024-02-26T10:52:52;13.30;52.20
1337;DHT22;662;48.814;9.318;2024-02-26T10:55:18;13.50;52.20
1337;DHT22;662;48.814;9.318;2024-02-26T10:57:46;13.50;51.40
1337;DHT22;662;48.814;9.318;2024-02-26T11:00:16;13.60;51.40
1337;DHT22;662;48.814;9.318;2024-02-26T11:02:42;13.60;50.00
1337;DHT22;662;48.814;9.318;2024-02-26T11:05:11;13.70;50.20
1337;DHT22;662;48.814;9.318;2024-02-26T11:07:37;13.80;50.60
1337;DHT22;662;48.814;9.318;2024-02-26T11:10:04;13.90;50.60
1337;DHT22;662;48.814;9.318;2024-02-26T11:12:32;13.90;50.20
1337;DHT22;662;48.814;9.318;2024-02-26T11:15:00;14.00;50.10
1337;DHT22;662;48.814;9.318;2024-02-26T11:17:29;14.00;49.80
1337;DHT22;662;48.814;9.318;2024-02-26T11:19:57;14.00;49.60
1337;DHT22;662;48.814;9.318;2024-02-26T11:22:27;14.10;49.50
1337;DHT22;662;48.814;9.318;2024-02-26T11:24:54;14.10;49.20
1337;DHT22;662;48.814;9.318;2024-02-26T11:27:26;14.20;49.40
1337;DHT22;662;48.814;9.318;2024-02-26T11:29:56;14.30;49.60
1337;DHT22;662;48.814;9.318;2024-02-26T11:32:26;14.30;49.20
1337;DHT22;662;48.814;9.318;2024-02-26T11:34:53;14.30;48.60
1337;DHT22;662;48.814;9.318;2024-02-26T11:37:19;14.40;48.60
1337;DHT22;662;48.814;9.318;2024-02-26T11:39:46;14.40;48.30
1337;DHT22;662;48.814;9.318;2024-02-26T11:42:14;14.50;48.10
1337;DHT22;662;48.814;9.318;2024-02-26T11:44:40;14.60;48.20
1337;DHT22;662;48.814;9.318;2024-02-26T11:47:17;14.60;48.00
1337;DHT22;662;48.814;9.318;2024-02-26T11:49:43;14.70;47.70
1337;DHT22;662;48.814;9.318;2024-02-26T11:52:10;14.80;47.10
1337;DHT22;662;48.814;9.318;2024-02-26T11:54:40;14.80;46.80
1337;DHT22;662;48.814;9.318;2024-02-26T11:57:37;14.90;46.30
1337;DHT22;662;48.814;9.318;2024-02-26T12:05:32;14.90;46.10
1337;DHT22;662;48.814;9.318;2024-02-26T12:08:06;15.00;46.30
1337;DHT22;662;48.814;9.318;2024-02-26T12:10:35;15.10;46.40
1337;DHT22;662;48.814;9.318;2024-02-26T12:13:15;15.20;46.60
1337;DHT22;662;48.814;9.318;2024-02-26T12:15:43;15.40;45.80
1337;DHT22;662;48.814;9.318;2024-02-26T12:18:12;15.50;45.80
1337;DHT22;662;48.814;9.318;2024-02-26T12:20:41;15.60;45.50
1337;DHT22;662;48.814;9.318;2024-02-26T12:23:07;15.70;45.10
1337;DHT22;662;48.814;9.318;2024-02-26T12:25:33;15.70;44.70
1337;DHT22;662;48.814;9.318;2024-02-26T12:27:59;15.80;44.70
1337;DHT22;662;48.814;9.318;2024-02-26T12:30:27;15.80;44.60
1337;DHT22;662;48.814;9.318;2024-02-26T12:32:55;15.70;44.20
1337;DHT22;662;48.814;9.318;2024-02-26T12:35:23;15.70;44.40
1337;DHT22;662;48.814;9.318;2024-02-26T12:37:50;15.70;43.90
1337;DHT22;662;48.814;9.318;2024-02-26T12:40:17;15.70;43.70
1337;DHT22;662;48.814;9.318;2024-02-26T12:42:43;15.70;43.30
1337;DHT22;662;48.814;9.318;2024-02-26T12:45:11;15.60;43.40
1337;DHT22;662;48.814;9.318;2024-02-26T12:47:45;15.60;43.80
1337;DHT22;662;48.814;9.318;2024-02-26T12:50:15;15.60;44.00
1337;DHT22;662;48.814;9.318;2024-02-26T12:52:46;15.60;44.00
1337;DHT22;662;48.814;9.318;2024-02-26T12:55:18;15.70;44.40
1337;DHT22;662;48.814;9.318;2024-02-26T12:57:45;16.00;44.60
1337;DHT22;662;48.814;9.318;2024-02-26T13:00:16;16.30;44.50
1337;DHT22;662;48.814;9.318;2024-02-26T13:02:43;16.70;44.10
1337;DHT22;662;48.814;9.318;2024-02-26T13:05:13;17.00;43.20
1337;DHT22;662;48.814;9.318;2024-02-26T13:07:46;17.30;42.50
1337;DHT22;662;48.814;9.318;2024-02-26T13:10:13;17.60;41.80
1337;DHT22;662;48.814;9.318;2024-02-26T13:12:46;17.70;40.70
1337;DHT22;662;48.814;9.318;2024-02-26T13:15:20;17.70;40.60
1337;DHT22;662;48.814;9.318;2024-02-26T13:17:47;17.60;40.90
1337;DHT22;662;48.814;9.318;2024-02-26T13:20:24;17.50;40.90
1337;DHT22;662;48.814;9.318;2024-02-26T13:22:50;17.50;40.80
1337;DHT22;662;48.814;9.318;2024-02-26T13:25:20;17.30;40.80
1337;DHT22;662;48.814;9.318;2024-02-26T13:27:46;17.30;40.90
1337;DHT22;662;48.814;9.318;2024-02-26T13:30:12;17.20;41.30
1337;DHT22;662;48.814;9.318;2024-02-26T13:32:39;17.10;41.60
1337;DHT22;662;48.814;9.318;2024-02-26T13:35:10;17.10;41.90
1337;DHT22;662;48.814;9.318;2024-02-26T13:37:37;17.10;42.10
1337;DHT22;662;48.814;9.318;2024-02-26T13:40:09;17.00;42.00
1337;DHT22;662;48.814;9.318;2024-02-26T13:42:35;16.90;42.00
1337;DHT22;662;48.814;9.318;2024-02-26T13:45:02;16.90;42.10
1337;DHT22;662;48.814;9.318;2024-02-26T13:47:28;16.80;42.30
1337;DHT22;662;48.814;9.318;2024-02-26T13:49:54;16.80;42.80
1337;DHT22;662;48.814;9.318;2024-02-26T13:52:20;16.80;43.00
1337;DHT22;662;48.814;9.318;2024-02-26T13:54:46;16.80;43.10
1337;DHT22;662;48.814;9.318;2024-02-26T13:57:12;16.80;43.00
1337;DHT22;662;48.814;9.318;2024-02-26T13:59:37;16.90;43.20
1337;DHT22;662;48.814;9.318;2024-02-26T14:02:07;16.90;43.00
1337;DHT22;662;48.814;9.318;2024-02-26T14:04:40;16.90;42.70
1337;DHT22;662;48.814;9.318;2024-02-26T14:07:06;17.10;43.10
1337;DHT22;662;48.814;9.318;2024-02-26T14:09:33;17.30;43.30
1337;DHT22;662;48.814;9.318;2024-02-26T14:11:59;17.50;42.90
1337;DHT22;662;48.814;9.318;2024-02-26T14:14:27;17.70;42.80
1337;DHT22;662;48.814;9.318;2024-02-26T14:16:53;18.00;42.50
1337;DHT22;662;48.814;9.318;2024-02-26T14:19:18;18.30;42.10
1337;DHT22;662;48.814;9.318;2024-02-26T14:21:44;18.70;41.70
1337;DHT22;662;48.814;9.318;2024-02-26T14:24:09;19.10;41.10
1337;DHT22;662;48.814;9.318;2024-02-26T14:26:35;19.30;40.10
1337;DHT22;662;48.814;9.318;2024-02-26T14:29:01;19.40;39.60
1337;DHT22;662;48.814;9.318;2024-02-26T14:31:26;19.30;39.20
1337;DHT22;662;48.814;9.318;2024-02-26T14:33:52;19.10;39.50
1337;DHT22;662;48.814;9.318;2024-02-26T14:36:20;18.90;39.80
1337;DHT22;662;48.814;9.318;2024-02-26T14:38:47;18.90;40.00
1337;DHT22;662;48.814;9.318;2024-02-26T14:41:13;18.90;40.10
1337;DHT22;662;48.814;9.318;2024-02-26T14:43:39;19.10;40.20
1337;DHT22;662;48.814;9.318;2024-02-26T14:46:04;19.30;40.50
1337;DHT22;662;48.814;9.318;2024-02-26T14:48:31;19.50;40.40
1337;DHT22;662;48.814;9.318;2024-02-26T14:50:57;19.40;39.90
1337;DHT22;662;48.814;9.318;2024-02-26T14:53:24;19.20;40.00
1337;DHT22;662;48.814;9.318;2024-02-26T14:55:49;19.00;40.50
1337;DHT22;662;48.814;9.318;2024-02-26T14:58:16;18.70;40.50
1337;DHT22;662;48.814;9.318;2024-02-26T15:00:41;18.60;40.80
1337;DHT22;662;48.814;9.318;2024-02-26T15:03:07;18.50;41.10
1337;DHT22;662;48.814;9.318;2024-02-26T15:05:33;18.40;41.00
1337;DHT22;662;48.814;9.318;2024-02-26T15:07:59;18.20;41.10
1337;DHT22;662;48.814;9.318;2024-02-26T15:10:25;18.10;41.40
1337;DHT22;662;48.814;9.318;2024-02-26T15:12:51;17.80;41.30
1337;DHT22;662;48.814;9.318;2024-02-26T15:15:20;17.50;41.80
1337;DHT22;662;48.814;9.318;2024-02-26T15:17:47;17.40;42.30
1337;DHT22;662;48.814;9.318;2024-02-26T15:20:14;17.20;42.50
1337;DHT22;662;48.814;9.318;2024-02-26T15:22:40;17.00;42.60
1337;DHT22;662;48.814;9.318;2024-02-26T15:25:07;16.80;42.80
1337;DHT22;662;48.814;9.318;2024-02-26T15:27:33;16.70;43.00
1337;DHT22;662;48.814;9.318;2024-02-26T15:29:59;16.50;43.30
1337;DHT22;662;48.814;9.318;2024-02-26T15:32:26;16.40;43.80
1337;DHT22;662;48.814;9.318;2024-02-26T15:34:55;16.30;44.20
1337;DHT22;662;48.814;9.318;2024-02-26T15:37:21;16.20;44.50
1337;DHT22;662;48.814;9.318;2024-02-26T15:39:47;16.10;44.70
1337;DHT22;662;48.814;9.318;2024-02-26T15:42:13;16.10;44.90
1337;DHT22;662;48.814;9.318;2024-02-26T15:44:39;16.00;45.10
1337;DHT22;662;48.814;9.318;2024-02-26T15:47:05;15.90;45.10
1337;DHT22;662;48.814;9.318;2024-02-26T15:49:31;15.90;45.00
1337;DHT22;662;48.814;9.318;2024-02-26T15:51:57;15.80;45.10
1337;DHT22;662;48.814;9.318;2024-02-26T15:54:24;15.80;45.30
1337;DHT22;662;48.814;9.318;2024-02-26T15:56:49;15.70;45.40
1337;DHT22;662;48.814;9.318;2024-02-26T15:59:16;15.60;45.60
1337;DHT22;662;48.814;9.318;2024-02-26T16:01:41;15.50;45.80
1337;DHT22;662;48.814;9.318;2024-02-26T16:04:08;15.50;45.90
1337;DHT22;662;48.814;9.318;2024-02-26T16:06:43;15.40;46.10
1337;DHT22;662;48.814;9.318;2024-02-26T16:09:09;15.30;46.20
1337;DHT22;662;48.814;9.318;2024-02-26T16:11:35;15.30;46.40
1337;DHT22;662;48.814;9.318;2024-02-26T16:19:35;15.10;46.80
1337;DHT22;662;48.814;9.318;2024-02-26T16:22:01;15.00;46.90
1337;DHT22;662;48.814;9.318;2024-02-26T16:24:27;14.90;47.00
1337;DHT22;662;48.814;9.318;2024-02-26T16:26:53;14.80;46.90
1337;DHT22;662;48.814;9.318;2024-02-26T16:29:18;14.70;47.00